LNG Dream — C6VO5 — position and weather

sailwx.info

Track history (hours):
 
Tides and Currents Weather Stations Pressure Air Temp Water Temp Dewpoint Dewpoint Depression Visibility Wind Speed Wind Dir Waves Ship Positions

LNG Dream

Last reported at 2016-Aug-17 04:07 UTC. Time now 2016-Aug-26 20:01 UTC.
Position S 20°19' E 116°45'.
Warning: this ship's position is 9 days out of date.

Length 289.6 m; beam 49 m.

Type: Ship (hazmat cat A). MMSI: 309065000.

Date/timePositionNaut miles runAvg speedWind from/ knotsBaromVisibWave heightAir tempDewpointWater temp
2016-Aug-17 04:07S 20°19' E 116°45'15 8.7
2016-Aug-17 02:25S 20°34' E 116°45'1 0.0
2016-Aug-16 00:29S 20°35' E 116°46'8 9.0
2016-Aug-15 23:33S 20°27' E 116°44'9 9.5
2016-Aug-15 22:33S 20°17' E 116°44'10 9.2
2016-Aug-15 21:30S 20°08' E 116°47'1212.2
2016-Aug-15 20:33S 19°59' E 116°55'1212.2
2016-Aug-15 19:32S 19°49' E 117°02'1412.3
2016-Aug-15 18:26S 19°38' E 117°10'1112.3
2016-Aug-15 17:31S 19°28' E 117°16'2512.7
2016-Aug-15 15:31S 19°06' E 117°30'82 9.9
2016-Aug-15 07:10S 17°59' E 118°20'1415.3
2016-Aug-15 06:17S 17°59' E 118°35'66 8.0
2016-Aug-14 22:03S 17°26' E 117°35'813.3
2016-Aug-14 21:28S 17°23' E 117°28'135 5.3
2016-Aug-13 20:04S 16°02' E 119°20'  
Track history (hours):
 
Tides and Currents Weather Stations Pressure Air Temp Water Temp Dewpoint Dewpoint Depression Visibility Wind Speed Wind Dir Waves Ship Positions

LNG Dream

Last reported at 2016-Aug-17 04:07 UTC. Time now 2016-Aug-26 20:01 UTC.
Position S 20°19' E 116°45'.
Warning: this ship's position is 9 days out of date.

Length 289.6 m; beam 49 m.

Type: Ship (hazmat cat A). MMSI: 309065000.

Date/timePositionNaut miles runAvg speedWind from/ knotsBaromVisibWave heightAir tempDewpointWater temp
2016-Aug-17 04:07S 20°19' E 116°45'15 8.7
2016-Aug-17 02:25S 20°34' E 116°45'1 0.0
2016-Aug-16 00:29S 20°35' E 116°46'8 9.0
2016-Aug-15 23:33S 20°27' E 116°44'9 9.5
2016-Aug-15 22:33S 20°17' E 116°44'10 9.2
2016-Aug-15 21:30S 20°08' E 116°47'1212.2
2016-Aug-15 20:33S 19°59' E 116°55'1212.2
2016-Aug-15 19:32S 19°49' E 117°02'1412.3
2016-Aug-15 18:26S 19°38' E 117°10'1112.3
2016-Aug-15 17:31S 19°28' E 117°16'2512.7
2016-Aug-15 15:31S 19°06' E 117°30'82 9.9
2016-Aug-15 07:10S 17°59' E 118°20'1415.3
2016-Aug-15 06:17S 17°59' E 118°35'66 8.0
2016-Aug-14 22:03S 17°26' E 117°35'813.3
2016-Aug-14 21:28S 17°23' E 117°28'135 5.3
2016-Aug-13 20:04S 16°02' E 119°20'  

Dump ship's entire track history